createdAt,value
2022-12-20T00:01:28.035Z,73.30
2022-12-20T00:03:56.715Z,74.20
2022-12-20T00:06:25.178Z,73.40
2022-12-20T00:08:58.529Z,73.30
2022-12-20T00:11:27.584Z,73.30
2022-12-20T00:13:54.813Z,73.30
2022-12-20T00:16:24.924Z,73.10
2022-12-20T00:18:57.452Z,73.10
2022-12-20T00:21:25.768Z,73.20
2022-12-20T00:23:54.014Z,73.10
2022-12-20T00:26:25.725Z,73.10
2022-12-20T00:28:54.101Z,73.10
2022-12-20T00:31:23.236Z,72.80
2022-12-20T00:33:52.949Z,73.10
2022-12-20T00:36:21.342Z,73.10
2022-12-20T00:38:51.219Z,73.10
2022-12-20T00:41:24.859Z,72.90
2022-12-20T00:43:52.802Z,72.80
2022-12-20T00:46:20.988Z,72.80
2022-12-20T00:48:48.316Z,72.90
2022-12-20T00:51:18.957Z,73.00
2022-12-20T00:53:46.646Z,73.10
2022-12-20T00:56:14.676Z,73.30
2022-12-20T00:58:43.292Z,73.30
2022-12-20T01:01:26.154Z,73.40
2022-12-20T01:03:54.530Z,73.30
2022-12-20T01:06:23.546Z,73.30
2022-12-20T01:08:52.083Z,73.20
2022-12-20T01:11:22.377Z,73.20
2022-12-20T01:13:53.611Z,73.10
2022-12-20T01:16:24.199Z,73.20
2022-12-20T01:18:52.861Z,73.20
2022-12-20T01:21:22.896Z,73.70
2022-12-20T01:23:50.288Z,72.90
2022-12-20T01:26:20.537Z,72.90
2022-12-20T01:28:49.352Z,72.90
2022-12-20T01:31:18.576Z,72.90
2022-12-20T01:33:48.667Z,72.80
2022-12-20T01:36:20.343Z,72.70
2022-12-20T01:38:48.362Z,72.50
2022-12-20T01:41:21.038Z,72.40
2022-12-20T01:43:50.520Z,72.40
2022-12-20T01:46:19.629Z,72.40
2022-12-20T01:48:54.192Z,73.20
2022-12-20T01:51:23.812Z,72.40
2022-12-20T01:53:58.396Z,72.40
2022-12-20T01:56:26.042Z,72.40
2022-12-20T01:58:55.958Z,72.40
2022-12-20T02:01:24.846Z,72.50
2022-12-20T02:03:55.216Z,72.40
2022-12-20T02:06:26.159Z,72.40
2022-12-20T02:08:57.202Z,72.30
2022-12-20T02:11:48.968Z,72.30
2022-12-20T02:14:16.199Z,72.10
2022-12-20T02:17:01.559Z,72.00
2022-12-20T02:19:48.043Z,72.00
2022-12-20T02:22:46.058Z,72.00
2022-12-20T02:25:56.943Z,72.10
2022-12-20T02:29:00.436Z,72.10
2022-12-20T02:31:38.279Z,72.80
2022-12-20T02:34:07.034Z,72.00
2022-12-20T02:36:34.357Z,71.70
2022-12-20T02:39:01.871Z,71.80
2022-12-20T02:41:52.673Z,71.90
2022-12-20T02:44:42.920Z,72.10
2022-12-20T02:47:16.481Z,72.10
2022-12-20T02:49:46.517Z,72.20
2022-12-20T02:52:15.100Z,72.30
2022-12-20T02:54:42.839Z,72.40
2022-12-20T02:57:21.338Z,72.60
2022-12-20T03:00:05.350Z,72.70
2022-12-20T03:02:55.358Z,72.70
2022-12-20T03:05:26.412Z,72.70
2022-12-20T03:07:54.924Z,72.70
2022-12-20T03:10:25.689Z,72.70
2022-12-20T03:12:53.089Z,72.70
2022-12-20T03:15:21.077Z,72.80
2022-12-20T03:17:52.058Z,72.90
2022-12-20T03:20:19.573Z,72.80
2022-12-20T03:22:46.881Z,72.80
2022-12-20T03:25:14.322Z,72.70
2022-12-20T03:27:41.834Z,72.50
2022-12-20T03:30:10.127Z,72.50
2022-12-20T03:32:38.697Z,72.60
2022-12-20T03:35:07.100Z,72.80
2022-12-20T03:37:38.172Z,72.80
2022-12-20T03:40:07.740Z,72.80
2022-12-20T03:42:35.765Z,72.60
2022-12-20T03:45:04.143Z,72.50
2022-12-20T03:47:32.213Z,72.50
2022-12-20T03:49:59.518Z,72.50
2022-12-20T03:52:28.277Z,72.40
2022-12-20T03:54:55.599Z,72.50
2022-12-20T03:57:30.304Z,72.50
2022-12-20T03:59:58.471Z,72.60
2022-12-20T04:02:26.181Z,72.70
2022-12-20T04:04:54.694Z,72.80
2022-12-20T04:07:22.967Z,72.90
2022-12-20T04:09:50.884Z,72.90
2022-12-20T04:12:18.391Z,72.90
2022-12-20T04:14:45.970Z,72.90
2022-12-20T04:17:14.148Z,72.70
2022-12-20T04:19:42.498Z,72.80
2022-12-20T04:22:09.754Z,72.80
2022-12-20T04:24:56.002Z,72.80
2022-12-20T04:27:26.116Z,72.90
2022-12-20T04:29:55.892Z,73.00
2022-12-20T04:32:23.889Z,73.10
2022-12-20T04:34:51.256Z,73.30
2022-12-20T04:37:19.346Z,73.40
2022-12-20T04:39:51.661Z,73.50
2022-12-20T04:42:22.052Z,73.70
2022-12-20T04:44:50.842Z,73.70
2022-12-20T04:47:24.014Z,73.70
2022-12-20T04:49:52.592Z,73.70
2022-12-20T04:52:42.169Z,73.70
2022-12-20T04:55:15.030Z,73.70
2022-12-20T04:57:42.496Z,73.60
2022-12-20T05:00:10.625Z,73.50
2022-12-20T05:02:42.929Z,73.50
2022-12-20T05:05:14.270Z,73.50
2022-12-20T05:07:47.770Z,73.70
2022-12-20T05:10:15.867Z,73.70
2022-12-20T05:12:44.753Z,74.00
2022-12-20T05:15:19.584Z,74.00
2022-12-20T05:17:47.258Z,74.20
2022-12-20T05:20:14.945Z,74.10
2022-12-20T05:23:03.614Z,74.10
2022-12-20T05:25:53.480Z,74.10
2022-12-20T05:28:22.053Z,74.10
2022-12-20T05:30:50.825Z,74.10
2022-12-20T05:33:18.266Z,73.90
2022-12-20T05:35:45.642Z,73.80
2022-12-20T05:38:15.164Z,73.80
2022-12-20T05:40:42.991Z,73.70
2022-12-20T05:43:11.917Z,73.70
2022-12-20T05:45:47.654Z,73.80
2022-12-20T05:48:20.307Z,73.80
2022-12-20T05:50:48.262Z,73.80
2022-12-20T05:53:26.689Z,73.80
2022-12-20T05:55:57.905Z,73.80
2022-12-20T05:58:34.309Z,73.80
2022-12-20T06:01:07.214Z,73.70
2022-12-20T06:03:40.367Z,73.80
2022-12-20T06:06:14.869Z,73.80
2022-12-20T06:08:44.920Z,73.80
2022-12-20T06:11:17.955Z,73.70
2022-12-20T06:13:50.881Z,73.60
2022-12-20T06:16:20.672Z,73.50
2022-12-20T06:18:48.823Z,73.50
2022-12-20T06:21:17.892Z,73.40
2022-12-20T06:23:45.691Z,73.50
2022-12-20T06:26:15.483Z,73.50
2022-12-20T06:28:52.318Z,73.50
2022-12-20T06:31:25.137Z,73.50
2022-12-20T06:33:54.657Z,73.50
2022-12-20T06:36:24.064Z,73.60
2022-12-20T06:38:52.497Z,73.60
2022-12-20T06:41:20.038Z,73.60
2022-12-20T06:43:47.823Z,73.50
2022-12-20T06:46:15.294Z,73.70
2022-12-20T06:48:44.361Z,73.70
2022-12-20T06:51:12.819Z,73.60
2022-12-20T06:53:40.233Z,73.60
2022-12-20T06:56:07.644Z,73.60
2022-12-20T06:58:35.025Z,73.50
2022-12-20T07:01:02.696Z,73.50
2022-12-20T07:03:30.165Z,73.60
2022-12-20T07:05:57.623Z,73.60
2022-12-20T07:08:25.364Z,73.60
2022-12-20T07:10:54.424Z,73.70
2022-12-20T07:13:21.961Z,73.50
2022-12-20T07:15:49.484Z,73.50
2022-12-20T07:18:16.885Z,73.70
2022-12-20T07:20:44.375Z,73.90
2022-12-20T07:23:11.755Z,73.60
2022-12-20T07:25:39.101Z,73.70
2022-12-20T07:28:06.859Z,73.60
2022-12-20T07:30:34.223Z,73.40
2022-12-20T07:33:01.672Z,73.50
2022-12-20T07:35:29.347Z,73.50
2022-12-20T07:37:57.409Z,73.50
2022-12-20T07:40:24.825Z,73.40
2022-12-20T07:42:52.265Z,73.40
2022-12-20T07:45:20.105Z,73.30
2022-12-20T07:47:48.780Z,73.30
2022-12-20T07:50:16.487Z,73.30
2022-12-20T07:52:47.001Z,73.20
2022-12-20T07:55:14.960Z,73.10
2022-12-20T07:57:56.159Z,73.10
2022-12-20T08:00:24.930Z,73.00
2022-12-20T08:03:00.697Z,73.10
2022-12-20T08:05:29.194Z,73.10
2022-12-20T08:07:59.923Z,73.30
2022-12-20T08:10:28.905Z,73.10
2022-12-20T08:12:58.926Z,73.10
2022-12-20T08:15:28.094Z,73.20
2022-12-20T08:17:55.666Z,73.10
2022-12-20T08:20:23.107Z,72.90
2022-12-20T08:22:50.626Z,72.80
2022-12-20T08:25:18.488Z,72.80
2022-12-20T08:27:45.994Z,72.80
2022-12-20T08:30:14.116Z,72.90
2022-12-20T08:32:41.743Z,72.80
2022-12-20T08:35:09.405Z,73.00
2022-12-20T08:37:36.870Z,72.80
2022-12-20T08:40:05.993Z,72.70
2022-12-20T08:42:33.401Z,73.50
2022-12-20T08:45:01.088Z,72.70
2022-12-20T08:47:30.187Z,72.50
2022-12-20T08:49:57.718Z,72.50
2022-12-20T08:52:25.219Z,72.40
2022-12-20T08:54:52.733Z,72.40
2022-12-20T08:57:20.121Z,72.30
2022-12-20T08:59:47.593Z,72.50
2022-12-20T09:02:15.556Z,72.30
2022-12-20T09:04:44.429Z,72.30
2022-12-20T09:07:12.077Z,72.20
2022-12-20T09:09:39.619Z,72.90
2022-12-20T09:12:07.749Z,72.10
2022-12-20T09:14:35.172Z,71.80
2022-12-20T09:17:02.637Z,71.70
2022-12-20T09:19:31.080Z,72.50
2022-12-20T09:21:58.513Z,71.60
2022-12-20T09:24:25.989Z,71.80
2022-12-20T09:26:53.290Z,71.80
2022-12-20T09:29:26.973Z,71.60
2022-12-20T09:31:55.796Z,71.60
2022-12-20T09:34:23.275Z,71.50
2022-12-20T09:36:50.814Z,71.60
2022-12-20T09:39:18.169Z,71.50
2022-12-20T09:41:45.930Z,71.30
2022-12-20T09:44:24.077Z,71.40
2022-12-20T09:46:57.075Z,71.10
2022-12-20T09:49:29.945Z,70.90
2022-12-20T09:52:09.257Z,70.90
2022-12-20T09:54:55.064Z,71.00
2022-12-20T09:58:06.755Z,71.10
2022-12-20T10:00:43.639Z,71.20
2022-12-20T10:03:35.102Z,71.40
2022-12-20T10:06:33.842Z,71.40
2022-12-20T10:09:04.474Z,71.30
2022-12-20T10:12:03.570Z,71.50
2022-12-20T10:14:46.173Z,71.40
2022-12-20T10:17:32.167Z,71.20
2022-12-20T10:20:30.815Z,71.10
2022-12-20T10:23:27.959Z,70.80
2022-12-20T10:26:00.107Z,70.70
2022-12-20T10:28:34.675Z,70.70
2022-12-20T10:31:07.479Z,70.40
2022-12-20T10:33:35.859Z,70.30
2022-12-20T10:36:34.915Z,69.90
2022-12-20T10:39:11.639Z,69.70
2022-12-20T10:41:43.633Z,69.70
2022-12-20T10:44:18.764Z,69.70
2022-12-20T10:46:50.804Z,69.80
2022-12-20T10:49:32.357Z,70.00
2022-12-20T10:52:21.833Z,70.00
2022-12-20T10:54:49.207Z,70.10
2022-12-20T10:57:24.005Z,70.30
2022-12-20T10:59:55.953Z,70.30
2022-12-20T11:02:31.968Z,70.30
2022-12-20T11:05:11.234Z,70.40
2022-12-20T11:10:46.037Z,70.50
2022-12-20T11:13:25.988Z,70.50
2022-12-20T11:15:57.731Z,70.40
2022-12-20T11:18:37.561Z,70.40
2022-12-20T11:21:18.526Z,70.40
2022-12-20T11:23:53.826Z,70.20
2022-12-20T11:26:39.641Z,70.40
2022-12-20T11:29:28.575Z,70.30
2022-12-20T11:32:23.604Z,70.30
2022-12-20T11:35:26.342Z,71.10
2022-12-20T11:37:53.671Z,70.60
2022-12-20T11:40:29.441Z,70.70
2022-12-20T11:43:48.085Z,70.80
2022-12-20T11:46:45.324Z,70.90
2022-12-20T11:49:37.624Z,71.60
2022-12-20T11:52:17.946Z,71.20
2022-12-20T11:54:49.951Z,71.30
2022-12-20T11:57:23.012Z,71.40
2022-12-20T12:00:02.642Z,71.60
2022-12-20T12:02:53.119Z,71.90
2022-12-20T12:05:43.651Z,71.70
2022-12-20T12:08:27.637Z,71.80
2022-12-20T12:11:04.260Z,71.60
2022-12-20T12:13:35.259Z,71.60
2022-12-20T12:16:12.312Z,71.50
2022-12-20T12:18:42.104Z,71.30
2022-12-20T12:21:28.612Z,71.40
2022-12-20T12:24:42.443Z,71.50
2022-12-20T12:27:22.972Z,71.40
2022-12-20T12:29:53.929Z,71.40
2022-12-20T12:32:26.815Z,71.20
2022-12-20T12:35:15.915Z,71.30
2022-12-20T12:37:53.008Z,71.20
2022-12-20T12:41:13.597Z,71.20
2022-12-20T12:43:49.466Z,71.10
2022-12-20T12:46:26.861Z,71.00
2022-12-20T12:49:12.250Z,70.80
2022-12-20T12:51:43.855Z,70.80
2022-12-20T12:54:21.539Z,70.80
2022-12-20T12:56:52.790Z,70.70
2022-12-20T12:59:22.427Z,70.80
2022-12-20T13:01:54.673Z,71.00
2022-12-20T13:04:25.862Z,71.10
2022-12-20T13:07:02.212Z,71.20
2022-12-20T13:09:31.329Z,71.20
2022-12-20T13:12:02.504Z,71.10
2022-12-20T13:14:32.957Z,70.90
2022-12-20T13:17:22.426Z,70.70
2022-12-20T13:19:54.663Z,70.80
2022-12-20T13:22:26.459Z,70.70
2022-12-20T13:24:59.427Z,70.80
2022-12-20T13:27:41.372Z,70.70
2022-12-20T13:30:14.681Z,70.60
2022-12-20T13:32:55.762Z,70.70
2022-12-20T13:35:29.229Z,71.00
2022-12-20T13:37:56.514Z,70.90
2022-12-20T13:41:00.280Z,71.00
2022-12-20T13:43:42.181Z,71.10
2022-12-20T13:46:10.399Z,71.30
2022-12-20T13:48:46.716Z,71.30
2022-12-20T13:51:22.495Z,71.30
2022-12-20T13:54:07.477Z,71.40
2022-12-20T13:56:42.875Z,71.20
2022-12-20T13:59:26.827Z,71.20
2022-12-20T14:01:58.483Z,71.10
2022-12-20T14:04:28.206Z,71.20
2022-12-20T14:07:01.585Z,71.10
2022-12-20T14:09:38.749Z,71.00
2022-12-20T14:12:11.991Z,71.00
2022-12-20T14:14:47.129Z,71.00
2022-12-20T14:17:32.389Z,71.00
2022-12-20T14:20:13.951Z,71.10
2022-12-20T14:23:04.489Z,71.10
2022-12-20T14:25:49.229Z,71.10
2022-12-20T14:28:27.626Z,71.20
2022-12-20T14:30:56.756Z,71.30
2022-12-20T14:33:30.413Z,71.20
2022-12-20T14:35:59.907Z,71.20
2022-12-20T14:38:31.655Z,71.10
2022-12-20T14:40:59.286Z,71.00
2022-12-20T14:43:34.344Z,71.00
2022-12-20T14:46:09.350Z,70.90
2022-12-20T14:48:36.948Z,71.10
2022-12-20T14:51:05.690Z,71.10
2022-12-20T14:53:36.001Z,71.00
2022-12-20T14:56:05.011Z,71.00
2022-12-20T14:58:34.347Z,71.10
2022-12-20T15:01:24.729Z,71.10
2022-12-20T15:03:57.607Z,71.20
2022-12-20T15:06:31.866Z,71.20
2022-12-20T15:08:59.449Z,71.10
2022-12-20T15:11:27.027Z,71.20
2022-12-20T15:13:55.519Z,71.30
2022-12-20T15:16:24.910Z,71.20
2022-12-20T15:18:55.344Z,71.20
2022-12-20T15:21:33.364Z,71.20
2022-12-20T15:24:07.684Z,71.20
2022-12-20T15:26:36.443Z,71.20
2022-12-20T15:29:04.537Z,71.20
2022-12-20T15:31:34.830Z,71.10
2022-12-20T15:34:19.994Z,71.00
2022-12-20T15:36:47.335Z,70.80
2022-12-20T15:39:15.559Z,70.70
2022-12-20T15:41:46.128Z,70.70
2022-12-20T15:44:22.561Z,70.70
2022-12-20T15:46:51.108Z,70.80
2022-12-20T15:49:30.165Z,70.90
2022-12-20T15:51:58.155Z,70.90
2022-12-20T15:54:27.582Z,70.80
2022-12-20T15:57:04.142Z,70.80
2022-12-20T15:59:58.875Z,70.80
2022-12-20T16:02:22.423Z,70.80
2022-12-20T16:04:50.514Z,70.70
2022-12-20T16:07:18.009Z,70.70
2022-12-20T16:09:45.756Z,70.70
2022-12-20T16:12:24.872Z,70.70
2022-12-20T16:14:52.316Z,70.60
2022-12-20T16:17:19.702Z,70.60
2022-12-20T16:19:47.087Z,70.60
2022-12-20T16:22:20.337Z,71.20
2022-12-20T16:24:48.450Z,70.40
2022-12-20T16:27:15.908Z,70.50
2022-12-20T16:29:43.453Z,70.60
2022-12-20T16:32:19.519Z,70.60
2022-12-20T16:34:50.609Z,70.60
2022-12-20T16:37:18.269Z,70.60
2022-12-20T16:39:45.685Z,70.60
2022-12-20T16:42:15.716Z,70.60
2022-12-20T16:44:45.255Z,70.70
2022-12-20T16:47:14.839Z,70.70
2022-12-20T16:49:51.295Z,70.70
2022-12-20T16:52:21.666Z,70.60
2022-12-20T16:54:49.574Z,70.60
2022-12-20T16:57:17.223Z,70.70
2022-12-20T16:59:44.623Z,70.70
2022-12-20T17:02:29.491Z,70.60
2022-12-20T17:04:57.447Z,70.60
2022-12-20T17:07:25.878Z,70.60
2022-12-20T17:09:54.945Z,70.80
2022-12-20T17:12:22.874Z,70.80
2022-12-20T17:14:50.642Z,70.80
2022-12-20T17:17:18.049Z,70.70
2022-12-20T17:19:45.449Z,70.80
2022-12-20T17:22:25.658Z,70.90
2022-12-20T17:24:53.081Z,71.70
2022-12-20T17:27:20.839Z,71.00
2022-12-20T17:29:50.461Z,71.10
2022-12-20T17:32:25.694Z,71.10
2022-12-20T17:34:53.724Z,71.20
2022-12-20T17:37:21.770Z,71.20
2022-12-20T17:39:49.389Z,72.00
2022-12-20T17:42:17.020Z,71.10
2022-12-20T17:44:46.290Z,71.00
2022-12-20T17:47:14.086Z,70.90
2022-12-20T17:49:41.441Z,70.90
2022-12-20T17:52:15.860Z,70.90
2022-12-20T17:54:43.470Z,70.80
2022-12-20T17:57:16.950Z,70.80
2022-12-20T17:59:44.767Z,70.90
2022-12-20T18:02:21.334Z,70.90
2022-12-20T18:04:48.980Z,70.80
2022-12-20T18:07:16.448Z,70.80
2022-12-20T18:09:47.455Z,70.90
2022-12-20T18:12:14.983Z,70.90
2022-12-20T18:14:42.213Z,71.00
2022-12-20T18:17:09.695Z,71.00
2022-12-20T18:19:37.406Z,71.00
2022-12-20T18:22:04.968Z,70.90
2022-12-20T18:24:32.330Z,70.90
2022-12-20T18:26:59.686Z,70.90
2022-12-20T18:29:27.075Z,71.00
2022-12-20T18:31:54.526Z,71.00
2022-12-20T18:34:22.078Z,70.90
2022-12-20T18:36:49.453Z,71.00
2022-12-20T18:39:16.883Z,71.10
2022-12-20T18:41:44.613Z,71.10
2022-12-20T18:44:12.105Z,71.00
2022-12-20T18:46:40.657Z,71.00
2022-12-20T18:49:09.378Z,71.00
2022-12-20T18:51:37.190Z,71.10
2022-12-20T18:54:06.768Z,71.20
2022-12-20T18:56:37.606Z,71.20
2022-12-20T18:59:11.602Z,72.00
2022-12-20T19:01:40.723Z,71.20
2022-12-20T19:04:08.837Z,71.30
2022-12-20T19:06:36.950Z,71.30
2022-12-20T19:09:07.609Z,71.20
2022-12-20T19:11:35.126Z,71.30
2022-12-20T19:14:03.501Z,71.30
2022-12-20T19:16:32.780Z,71.30
2022-12-20T19:19:02.278Z,71.40
2022-12-20T19:21:34.981Z,71.30
2022-12-20T19:24:05.521Z,71.40
2022-12-20T19:26:34.860Z,71.30
2022-12-20T19:29:03.132Z,71.30
2022-12-20T19:31:32.885Z,71.20
2022-12-20T19:34:07.517Z,71.20
2022-12-20T19:36:36.610Z,71.10
2022-12-20T19:39:06.927Z,71.10
2022-12-20T19:41:36.022Z,71.00
2022-12-20T19:44:04.459Z,71.10
2022-12-20T19:46:32.133Z,70.80
2022-12-20T19:49:00.317Z,70.90
2022-12-20T19:51:29.033Z,70.90
2022-12-20T19:53:57.895Z,70.80
2022-12-20T19:56:29.141Z,70.80
2022-12-20T19:58:56.579Z,70.90
2022-12-20T20:01:26.851Z,70.90
2022-12-20T20:03:56.211Z,71.10
2022-12-20T20:06:24.541Z,71.20
2022-12-20T20:08:51.937Z,71.20
2022-12-20T20:11:21.078Z,71.10
2022-12-20T20:13:48.608Z,71.20
2022-12-20T20:16:21.956Z,71.20
2022-12-20T20:18:50.370Z,71.30
2022-12-20T20:21:21.801Z,71.20
2022-12-20T20:23:51.796Z,71.30
2022-12-20T20:26:24.942Z,71.30
2022-12-20T20:28:52.941Z,71.30
2022-12-20T20:31:21.312Z,71.20
2022-12-20T20:33:49.415Z,71.10
2022-12-20T20:36:19.646Z,71.10
2022-12-20T20:38:47.419Z,71.10
2022-12-20T20:41:15.139Z,71.10
2022-12-20T20:43:43.395Z,71.00
2022-12-20T20:46:13.577Z,70.80
2022-12-20T20:48:41.244Z,70.80
2022-12-20T20:51:08.985Z,70.80
2022-12-20T20:53:36.769Z,70.80
2022-12-20T20:56:05.669Z,70.70
2022-12-20T20:58:34.130Z,70.60
2022-12-20T21:01:03.633Z,70.70
2022-12-20T21:03:32.066Z,70.80
2022-12-20T21:08:47.066Z,71.00
2022-12-20T21:11:14.564Z,70.90
2022-12-20T21:13:42.013Z,71.10
2022-12-20T21:16:16.035Z,71.00
2022-12-20T21:18:43.564Z,71.00
2022-12-20T21:21:12.898Z,71.70
2022-12-20T21:23:44.355Z,71.00
2022-12-20T21:26:12.230Z,71.00
2022-12-20T21:28:40.497Z,71.00
2022-12-20T21:31:10.904Z,70.90
2022-12-20T21:33:39.051Z,70.90
2022-12-20T21:36:10.691Z,70.80
2022-12-20T21:38:37.987Z,70.80
2022-12-20T21:41:07.914Z,70.80
2022-12-20T21:43:35.455Z,70.80
2022-12-20T21:46:02.765Z,70.80
2022-12-20T21:48:30.486Z,70.80
2022-12-20T21:51:06.098Z,70.90
2022-12-20T21:53:33.842Z,70.80
2022-12-20T21:56:01.378Z,70.80
2022-12-20T21:58:30.418Z,70.80
2022-12-20T22:00:58.244Z,70.70
2022-12-20T22:03:26.194Z,70.70
2022-12-20T22:05:55.652Z,70.60
2022-12-20T22:08:25.245Z,70.70
2022-12-20T22:11:07.550Z,70.60
2022-12-20T22:13:41.128Z,70.80
2022-12-20T22:16:11.869Z,70.70
2022-12-20T22:18:40.530Z,70.70
2022-12-20T22:21:10.606Z,70.60
2022-12-20T22:23:38.967Z,70.40
2022-12-20T22:26:09.275Z,70.40
2022-12-20T22:28:37.643Z,70.40
2022-12-20T22:31:09.254Z,70.30
2022-12-20T22:33:38.083Z,70.40
2022-12-20T22:36:07.097Z,70.50
2022-12-20T22:38:34.967Z,70.50
2022-12-20T22:41:11.601Z,70.40
2022-12-20T22:43:40.922Z,70.40
2022-12-20T22:46:10.444Z,70.50
2022-12-20T22:48:38.928Z,70.50
2022-12-20T22:51:10.367Z,70.60
2022-12-20T22:53:38.206Z,70.60
2022-12-20T22:56:06.718Z,70.70
2022-12-20T22:58:35.568Z,70.80
2022-12-20T23:01:06.076Z,70.80
2022-12-20T23:03:34.186Z,70.90
2022-12-20T23:06:03.940Z,71.10
2022-12-20T23:08:34.197Z,71.20
2022-12-20T23:11:21.314Z,71.30
2022-12-20T23:14:07.353Z,71.40
2022-12-20T23:16:37.496Z,71.40
2022-12-20T23:19:04.757Z,71.40
2022-12-20T23:21:51.022Z,71.50
2022-12-20T23:24:18.420Z,71.60
2022-12-20T23:26:46.045Z,71.70
2022-12-20T23:29:14.255Z,71.70
2022-12-20T23:31:41.771Z,71.90
2022-12-20T23:34:09.309Z,71.90
2022-12-20T23:36:37.448Z,72.60
2022-12-20T23:39:05.417Z,72.00
2022-12-20T23:41:33.065Z,72.10
2022-12-20T23:44:00.553Z,72.30
2022-12-20T23:46:28.101Z,72.40
2022-12-20T23:48:55.567Z,72.50
2022-12-20T23:51:23.027Z,72.70
2022-12-20T23:53:53.451Z,72.90
2022-12-20T23:56:22.194Z,73.00
2022-12-20T23:58:52.403Z,73.00
